Latest Weather Observations for Lucas Heights

IDN60801

Issued at 9:32 pm EST Thursday 22 June 2017 (issued every 30 minutes, with the page automatically refreshed every 10 minutes)

About weather observations | Map of weather stations | Latest weather observations for NSW | Other Formats
Station Details ID: 066023 Name: LUCAS HEIGHTS AWS Lat: -34.05 Lon: 150.98 Height: 140.0 m
Data from the previous 72 hours. | See also: Recent months for locations in New South Wales
Date/Time
EST
Temp
°C
App
Temp
°C
Dew
Point
°C
Rel
Hum
%
Delta-T
°C
Wind Press
QNH
hPa
Press
MSL
hPa
Rain since
9am
mm
Dir  Spd
km/h
Gust
km/h
Spd
kts
Gust
kts
22/09:15pm 9.5 9.1 8.1 91 0.7 CALM 0 0 0 0 1024.3 - 0.0
22/08:45pm 10.2 9.9 8.7 90 0.7 CALM 0 0 0 0 1024.6 - 0.0
22/08:30pm 10.4 10.2 8.9 90 0.7 CALM 0 0 0 0 1024.4 - 0.0
22/08:15pm 10.5 10.3 8.9 90 0.8 CALM 0 0 0 0 1024.4 - 0.0
22/08:00pm 10.5 10.3 8.9 90 0.8 CALM 0 0 0 0 1024.5 - 0.0
22/07:45pm 10.7 10.5 9.0 89 0.8 CALM 0 0 0 0 1024.5 - 0.0
22/07:30pm 10.9 10.7 9.0 88 0.9 CALM 0 0 0 0 1024.5 - 0.0
22/07:15pm 11.1 10.9 9.1 87 1.0 CALM 0 0 0 0 1024.6 - 0.0
22/07:00pm 11.5 11.4 9.4 87 1.1 CALM 0 0 0 0 1024.7 - 0.0
22/06:45pm 11.9 11.8 9.6 86 1.2 CALM 0 0 0 0 1024.7 - 0.0
22/06:30pm 12.2 12.1 9.6 84 1.3 CALM 0 0 0 0 1024.6 - 0.0
22/06:15pm 12.7 12.7 9.9 83 1.4 CALM 0 0 0 0 1024.4 - 0.0
22/06:00pm 13.0 13.1 10.1 82 1.5 CALM 0 0 0 0 1024.3 - 0.0
22/05:45pm 13.1 13.2 10.1 82 1.6 CALM 0 0 0 0 1024.3 - 0.0
22/05:30pm 13.3 13.4 10.1 81 1.7 CALM 0 2 0 1 1024.4 - 0.0
22/05:15pm 13.6 13.7 10.2 80 1.8 CALM 0 4 0 2 1024.4 - 0.0
22/05:00pm 14.1 14.2 10.2 77 2.0 CALM 0 7 0 4 1024.5 - 0.0
22/04:45pm 14.7 14.5 10.3 75 2.3 E 2 9 1 5 1024.6 - 0.0
22/04:30pm 15.5 15.6 10.3 71 2.8 CALM 0 6 0 3 1024.7 - 0.0
22/04:15pm 16.1 16.2 10.3 68 3.1 CALM 0 0 0 0 1024.7 - 0.0
22/04:00pm 16.7 16.4 8.8 59 4.1 CALM 0 2 0 1 1024.7 - 0.0
22/03:45pm 17.2 16.7 8.0 54 4.7 CALM 0 4 0 2 1024.6 - 0.0
22/03:30pm 17.2 16.7 7.7 53 4.8 CALM 0 2 0 1 1024.5 - 0.0
22/03:15pm 17.1 16.6 7.7 54 4.8 CALM 0 4 0 2 1024.4 - 0.0
22/03:00pm 17.0 16.5 7.8 54 4.7 CALM 0 6 0 3 1024.4 - 0.0
22/02:45pm 17.1 16.9 9.0 59 4.2 CALM 0 2 0 1 1024.4 - 0.0
22/02:30pm 17.0 17.1 10.2 64 3.6 CALM 0 4 0 2 1024.4 - 0.0
22/02:15pm 16.7 16.8 10.0 64 3.6 CALM 0 4 0 2 1024.5 - 0.0
22/02:00pm 16.6 16.7 10.0 65 3.5 CALM 0 2 0 1 1024.7 - 0.0
22/01:45pm 16.3 16.4 10.2 67 3.2 CALM 0 0 0 0 1025.0 - 0.0
22/01:30pm 16.3 16.3 9.9 66 3.4 CALM 0 0 0 0 1025.2 - 0.0
22/01:15pm 16.8 16.8 9.8 63 3.7 CALM 0 4 0 2 1025.4 - 0.0
22/01:00pm 17.0 17.1 10.1 64 3.7 CALM 0 7 0 4 1025.6 - 0.0
22/12:45pm 16.4 16.5 10.0 66 3.4 CALM 0 0 0 0 1025.9 - 0.0
22/12:30pm 16.2 16.1 9.6 65 3.5 CALM 0 0 0 0 1026.3 - 0.0
22/12:15pm 15.9 15.9 9.9 67 3.2 CALM 0 0 0 0 1026.5 - 0.0
22/12:00pm 15.6 15.5 9.6 67 3.1 CALM 0 4 0 2 1026.8 - 0.0
22/11:45am 15.8 15.8 9.7 67 3.2 CALM 0 0 0 0 1027.1 - 0.0
22/11:30am 16.0 15.9 9.5 65 3.4 CALM 0 0 0 0 1027.4 - 0.0
22/11:15am 16.3 16.2 9.5 64 3.6 CALM 0 6 0 3 1027.6 - 0.0
22/11:00am 15.8 15.7 9.4 65 3.3 CALM 0 4 0 2 1027.8 - 0.0
22/10:45am 15.9 16.0 10.1 68 3.1 CALM 0 4 0 2 1028.0 - 0.0
22/10:30am 15.8 15.9 10.1 69 3.0 CALM 0 2 0 1 1028.3 - 0.0
22/10:15am 15.9 16.1 10.6 71 2.8 CALM 0 4 0 2 1028.4 - 0.0
22/10:00am 15.4 15.6 10.6 73 2.6 CALM 0 2 0 1 1028.5 - 0.0
22/09:45am 14.9 15.1 10.4 74 2.4 CALM 0 2 0 1 1028.4 - 0.0
22/09:30am 14.6 14.4 10.4 76 2.2 S 2 13 1 7 1028.3 - 0.0
22/09:15am 14.3 14.1 10.4 77 2.1 S 2 13 1 7 1028.3 - 0.0
22/09:00am 13.7 13.1 10.4 80 1.7 S 4 13 2 7 1028.2 - 0.0
22/08:45am 13.0 11.8 10.2 83 1.5 S 7 13 4 7 1028.2 - 0.0
22/08:30am 12.4 11.2 10.2 86 1.1 S 7 15 4 8 1028.2 - 0.0
22/08:15am 11.5 10.2 9.9 90 0.8 S 7 20 4 11 1028.2 - 0.0
22/08:00am 10.0 6.8 8.5 90 0.7 S 15 17 8 9 1028.1 - 0.0
22/07:45am 9.2 5.8 7.5 89 0.8 S 15 17 8 9 1028.0 - 0.0
22/07:30am 9.6 6.6 7.9 89 0.8 S 13 17 7 9 1027.9 - 0.0
22/07:15am 9.5 6.6 8.0 90 0.7 S 13 17 7 9 1027.8 - 0.0
22/07:00am 9.4 6.8 7.9 90 0.7 S 11 15 6 8 1027.7 - 0.0
22/06:45am 8.2 6.2 6.4 88 0.8 SSW 6 13 3 7 1027.7 - 0.0
22/06:30am 8.8 8.1 7.1 89 0.8 CALM 0 0 0 0 1027.4 - 0.0
22/06:15am 8.8 8.1 6.8 87 0.9 CALM 0 0 0 0 1027.1 - 0.0
22/06:00am 10.5 10.2 8.6 88 0.9 CALM 0 0 0 0 1026.9 - 0.0
22/05:45am 10.6 9.9 8.7 88 0.9 S 2 9 1 5 1026.8 - 0.0
22/05:30am 10.5 9.4 8.5 87 1.0 S 4 11 2 6 1026.6 - 0.0
22/05:15am 10.6 9.5 8.5 87 1.0 S 4 15 2 8 1026.7 - 0.0
22/05:00am 11.0 10.0 8.8 86 1.1 S 4 15 2 8 1026.7 - 0.0
22/04:45am 11.0 9.6 8.8 86 1.1 S 6 17 3 9 1026.7 - 0.0
22/04:30am 11.3 9.0 8.9 85 1.2 S 11 24 6 13 1026.7 - 0.0
22/04:15am 11.6 8.6 9.2 85 1.2 S 15 26 8 14 1026.6 - 0.0
22/04:00am 11.7 8.7 9.2 85 1.3 S 15 22 8 12 1026.6 - 0.0
22/03:45am 11.7 8.3 9.3 85 1.2 S 17 24 9 13 1026.6 - 0.0
22/03:30am 11.8 8.8 9.3 85 1.3 S 15 24 8 13 1026.5 - 0.0
22/03:15am 11.8 8.5 9.4 85 1.2 S 17 24 9 13 1026.7 - 0.0
22/03:00am 11.7 8.0 9.3 85 1.2 S 19 24 10 13 1026.8 - 0.0
22/02:45am 11.6 8.6 9.3 86 1.2 S 15 22 8 12 1027.0 - 0.0
22/02:30am 11.6 8.2 9.3 86 1.2 S 17 22 9 12 1027.1 - 0.0
22/02:15am 11.3 7.9 9.1 86 1.1 S 17 22 9 12 1027.1 - 0.0
22/02:00am 11.3 8.3 9.1 86 1.1 S 15 22 8 12 1027.2 - 0.0
22/01:45am 11.3 8.3 9.1 86 1.1 S 15 20 8 11 1027.3 - 0.0
22/01:30am 11.2 7.8 9.1 87 1.1 S 17 22 9 12 1027.3 - 0.0
22/01:15am 10.7 7.2 8.7 87 1.0 S 17 20 9 11 1027.4 - 0.0
22/01:00am 10.5 6.9 8.2 86 1.1 S 17 20 9 11 1027.5 - 0.0
22/12:45am 10.9 7.7 8.6 86 1.1 S 15 20 8 11 1027.6 - 0.0
22/12:30am 10.7 7.5 8.4 86 1.1 S 15 22 8 12 1027.7 - 0.0
22/12:15am 10.5 7.2 8.0 84 1.2 S 15 22 8 12 1027.6 - 0.0
22/12:00am 10.8 8.0 8.4 85 1.2 S 13 19 7 10 1027.7 - 0.0
 
Date/Time
EST
Temp
°C
App
Temp
°C
Dew
Point
°C
Rel
Hum
%
Delta-T
°C
Wind Press
QNH
hPa
Press
MSL
hPa
Rain since
9am
mm
Dir  Spd
km/h
Gust
km/h
Spd
kts
Gust
kts
21/11:45pm 10.6 7.3 8.2 85 1.2 S 15 20 8 11 1027.8 - 0.0
21/11:30pm 10.7 7.5 8.3 85 1.2 S 15 20 8 11 1028.0 - 0.0
21/11:15pm 10.6 7.3 8.2 85 1.2 S 15 20 8 11 1028.1 - 0.0
21/11:00pm 10.9 7.3 8.5 85 1.2 S 17 22 9 12 1028.2 - 0.0
21/10:45pm 10.9 7.3 8.4 84 1.2 S 17 20 9 11 1028.1 - 0.0
21/10:30pm 11.2 8.0 8.6 84 1.3 S 15 20 8 11 1028.1 - 0.0
21/10:15pm 11.6 8.5 9.0 84 1.3 S 15 22 8 12 1028.2 - 0.0
21/10:00pm 11.5 8.4 9.0 85 1.3 S 15 20 8 11 1028.2 - 0.0
21/09:45pm 11.4 8.3 8.8 84 1.3 S 15 17 8 9 1028.2 - 0.0
21/09:30pm 11.7 8.3 9.1 84 1.3 S 17 20 9 11 1028.2 - 0.0
21/09:15pm 11.4 7.9 8.8 84 1.3 S 17 20 9 11 1028.3 - 0.0
21/09:00pm 11.5 8.4 8.7 83 1.4 S 15 19 8 10 1028.4 - 0.0
21/08:45pm 11.8 9.1 8.8 82 1.5 S 13 17 7 9 1028.5 - 0.0
21/08:30pm 12.1 9.4 8.8 80 1.7 S 13 20 7 11 1028.6 - 0.0
21/08:15pm 12.5 9.4 8.9 79 1.8 SSW 15 20 8 11 1028.6 - 0.0
21/08:00pm 12.7 9.3 9.0 78 1.9 SSW 17 22 9 12 1028.6 - 0.0
21/07:45pm 12.8 9.4 9.0 78 1.9 SSW 17 20 9 11 1028.4 - 0.0
21/07:30pm 12.9 9.5 9.3 79 1.8 SSW 17 22 9 12 1028.3 - 0.0
21/07:15pm 12.6 9.9 8.8 77 1.9 S 13 20 7 11 1028.1 - 0.0
21/07:00pm 12.8 11.5 9.1 78 1.9 S 6 19 3 10 1028.0 - 0.0
21/06:45pm 12.6 12.4 8.9 78 1.9 CALM 0 4 0 2 1027.8 - 0.0
21/06:30pm 12.5 12.2 8.7 77 1.9 CALM 0 7 0 4 1027.5 - 0.0
21/06:15pm 12.7 11.7 8.8 77 2.0 S 4 11 2 6 1027.3 - 0.0
21/06:00pm 13.1 12.6 9.2 77 2.0 S 2 9 1 5 1027.2 - 0.0
21/05:45pm 12.9 11.4 9.1 78 1.9 S 7 15 4 8 1026.9 - 0.0
21/05:30pm 13.0 10.4 9.3 78 1.9 S 13 15 7 8 1026.5 - 0.0
21/05:15pm 13.0 10.3 8.9 76 2.1 S 13 15 7 8 1026.3 - 0.0
21/05:00pm 13.9 11.7 9.2 73 2.4 S 11 19 6 10 1026.1 - 0.0
21/04:45pm 14.6 12.4 9.3 70 2.7 S 11 17 6 9 1026.1 - 0.0
21/04:30pm 15.4 12.8 9.4 67 3.1 S 13 22 7 12 1026.0 - 0.0
21/04:15pm 15.7 12.4 9.4 66 3.3 SSE 17 26 9 14 1025.9 - 0.0
21/04:00pm 15.9 12.2 9.4 65 3.4 SSE 19 28 10 15 1025.7 - 0.0
21/03:45pm 16.4 13.5 9.6 64 3.6 SSE 15 26 8 14 1025.6 - 0.0
21/03:30pm 16.9 14.2 10.2 64 3.6 S 15 26 8 14 1025.6 - 0.0
21/03:15pm 16.8 13.7 10.4 66 3.4 S 17 30 9 16 1025.7 - 0.0
21/03:00pm 16.4 12.2 9.8 65 3.5 SSE 22 35 12 19 1025.7 - 0.0
21/02:45pm 16.8 12.6 9.9 64 3.7 S 22 33 12 18 1025.6 - 0.0
21/02:30pm 16.9 13.4 10.2 64 3.6 S 19 30 10 16 1025.6 - 0.0
21/02:15pm 16.5 11.9 9.5 63 3.7 SSE 24 35 13 19 1025.5 - 0.0
21/02:00pm 16.7 12.1 9.7 63 3.7 SSE 24 37 13 20 1025.4 - 0.0
21/01:45pm 16.8 11.8 9.7 63 3.7 SSE 26 35 14 19 1025.3 - 0.0
21/01:30pm 17.0 13.5 11.0 68 3.2 SSE 20 37 11 20 1025.4 - 0.0
21/01:15pm 16.9 12.8 11.4 70 3.0 S 24 32 13 17 1025.5 - 0.0
21/01:00pm 16.6 13.0 11.7 73 2.7 SSE 22 35 12 19 1025.6 - 0.0
21/12:45pm 16.6 13.0 11.9 74 2.6 SSE 22 35 12 19 1025.6 - 0.0
21/12:30pm 16.6 12.7 12.0 74 2.5 SSE 24 35 13 19 1025.7 - 0.0
21/12:15pm 16.6 13.1 12.2 75 2.4 SSE 22 33 12 18 1025.7 - 0.0
21/12:00pm 16.5 13.3 11.8 74 2.6 SSE 20 30 11 16 1025.9 - 0.0
21/11:45am 16.8 13.8 12.1 74 2.6 SSE 19 33 10 18 1026.1 - 0.0
21/11:30am 16.8 13.6 11.9 73 2.7 SSE 20 32 11 17 1026.1 - 0.0
21/11:15am 16.7 14.4 11.8 73 2.7 SSE 15 30 8 16 1026.2 - 0.0
21/11:00am 14.7 13.1 8.7 67 3.1 SSW 7 17 4 9 1026.4 - 0.0
21/10:45am 14.3 12.8 8.3 67 3.0 WSW 6 13 3 7 1026.5 - 0.0
21/10:30am 13.8 11.6 8.0 68 2.9 WSW 9 15 5 8 1026.5 - 0.0
21/10:15am 13.0 10.3 7.2 68 2.8 WSW 11 17 6 9 1026.4 - 0.0
21/10:00am 12.9 10.1 6.9 67 2.9 WSW 11 17 6 9 1026.3 - 0.0
21/09:45am 12.6 9.4 7.0 68 2.7 WSW 13 17 7 9 1026.2 - 0.0
21/09:30am 13.0 10.0 7.6 70 2.7 SW 13 17 7 9 1026.0 - 0.0
21/09:15am 13.1 10.2 8.2 72 2.4 SW 13 15 7 8 1025.8 - 0.0
21/09:00am 12.8 10.3 8.1 73 2.3 SW 11 15 6 8 1025.7 - 0.0
21/08:45am 11.5 8.7 7.1 74 2.1 SW 11 15 6 8 1025.5 - 0.0
21/08:30am 10.6 7.3 6.4 75 2.0 SSW 13 17 7 9 1025.3 - 0.0
21/08:15am 9.9 6.1 6.0 77 1.8 SSW 15 17 8 9 1025.1 - 0.0
21/08:00am 8.4 4.9 5.5 82 1.3 SSW 13 15 7 8 1025.0 - 0.0
21/07:45am 6.9 3.2 4.3 83 1.1 S 13 15 7 8 1024.9 - 0.0
21/07:30am 6.7 3.3 3.8 82 1.2 S 11 15 6 8 1024.8 - 0.0
21/07:15am 6.7 3.2 3.7 81 1.3 SSW 11 15 6 8 1024.6 - 0.0
21/07:00am 6.8 3.3 3.7 80 1.3 S 11 15 6 8 1024.4 - 0.0
21/06:45am 6.9 3.0 3.2 77 1.6 SSW 13 15 7 8 1024.2 - 0.0
21/06:30am 8.1 4.2 3.5 73 2.0 SSW 13 22 7 12 1024.0 - 0.0
21/06:15am 8.6 3.6 3.8 72 2.1 SSW 19 24 10 13 1023.9 - 0.0
21/06:00am 8.4 3.5 4.1 74 1.9 SSW 19 22 10 12 1023.5 - 0.0
21/05:45am 8.1 3.5 3.9 75 1.8 SSW 17 22 9 12 1023.5 - 0.0
21/05:30am 8.6 4.1 4.4 75 1.9 SSW 17 20 9 11 1023.4 - 0.0
21/05:15am 8.9 4.2 5.3 78 1.6 SSW 19 22 10 12 1023.2 - 0.0
21/05:00am 8.5 4.0 5.9 84 1.2 SW 19 24 10 13 1023.1 - 0.0
21/04:45am 8.8 4.7 6.1 83 1.2 SSW 17 22 9 12 1023.2 - 0.0
21/04:30am 8.8 4.3 6.0 82 1.3 SW 19 20 10 11 1023.2 - 0.0
21/04:15am 9.7 4.7 6.4 80 1.5 SW 22 26 12 14 1023.1 - 0.0
21/04:00am 10.0 4.7 6.9 81 1.5 WSW 24 26 13 14 1023.0 - 0.0
21/03:45am 9.9 4.6 7.0 82 1.4 WSW 24 26 13 14 1023.1 - 0.0
21/03:30am 9.9 4.7 7.2 83 1.3 WSW 24 26 13 14 1023.0 - 0.0
21/03:15am 9.5 4.7 7.4 87 1.0 WSW 22 24 12 13 1023.0 - 0.0
21/03:00am 9.1 4.6 6.8 85 1.1 WSW 20 24 11 13 1023.1 - 0.0
21/02:45am 9.9 5.2 7.8 87 1.0 WSW 22 24 12 13 1023.2 - 0.0
21/02:30am 9.4 4.7 7.8 90 0.8 WSW 22 26 12 14 1023.3 - 0.0
21/02:15am 9.1 5.2 7.3 88 0.9 SW 17 20 9 11 1023.5 - 0.0
21/02:00am 10.2 7.0 8.3 88 0.9 SW 15 19 8 10 1023.6 - 0.0
21/01:45am 11.4 8.5 9.8 90 0.8 SW 15 17 8 9 1023.7 - 0.0
21/01:30am 11.9 9.6 10.6 92 0.7 WSW 13 15 7 8 1023.8 - 0.0
21/01:15am 11.8 9.6 10.7 93 0.6 WSW 13 17 7 9 1023.9 - 0.0
21/01:00am 11.9 9.4 10.9 94 0.5 WSW 15 17 8 9 1024.0 - 0.0
21/12:45am 11.7 9.1 10.7 94 0.5 WSW 15 17 8 9 1024.0 - 0.0
21/12:30am 12.1 9.6 11.2 94 0.5 WSW 15 17 8 9 1024.1 - 0.0
21/12:15am 10.5 7.5 9.4 93 0.6 W 15 15 8 8 1024.3 - 0.0
21/12:00am 10.3 7.3 9.3 93 0.5 W 15 15 8 8 1024.5 - 0.0
 
Date/Time
EST
Temp
°C
App
Temp
°C
Dew
Point
°C
Rel
Hum
%
Delta-T
°C
Wind Press
QNH
hPa
Press
MSL
hPa
Rain since
9am
mm
Dir  Spd
km/h
Gust
km/h
Spd
kts
Gust
kts
20/11:45pm 10.1 7.5 9.2 94 0.4 W 13 15 7 8 1024.7 - 0.0
20/11:30pm 9.2 6.3 8.2 93 0.5 W 13 15 7 8 1024.9 - 0.0
20/11:15pm 9.2 6.7 8.2 93 0.5 WSW 11 13 6 7 1024.9 - 0.0
20/11:00pm 9.1 6.2 8.0 93 0.5 W 13 15 7 8 1025.0 - 0.0
20/10:45pm 9.6 7.2 8.5 93 0.5 W 11 13 6 7 1025.0 - 0.0
20/10:30pm 9.6 7.6 8.5 93 0.5 W 9 13 5 7 1025.1 - 0.0
20/10:15pm 9.8 7.8 8.7 93 0.5 W 9 11 5 6 1025.0 - 0.0
20/10:00pm 10.0 8.1 8.9 93 0.5 WNW 9 11 5 6 1025.0 - 0.0
20/09:45pm 10.2 8.3 9.1 93 0.5 NW 9 11 5 6 1025.0 - 0.0
20/09:30pm 10.4 8.5 9.2 92 0.6 NNW 9 11 5 6 1025.1 - 0.0
20/09:15pm 10.5 9.2 9.3 92 0.6 NNW 6 9 3 5 1025.2 - 0.0
20/09:00pm 10.5 9.0 9.3 92 0.6 N 7 11 4 6 1025.3 - 0.0
20/08:45pm 10.6 9.1 9.3 92 0.7 N 7 9 4 5 1025.3 - 0.0
20/08:30pm 10.8 9.4 9.5 92 0.7 N 7 9 4 5 1025.5 - 0.0
20/08:15pm 11.1 9.9 9.7 91 0.7 - 6 7 3 4 1025.5 - 0.0
20/08:00pm 11.2 10.1 9.8 91 0.7 NNE 6 7 3 4 1025.5 - 0.0
20/07:45pm 11.5 10.4 10.0 90 0.8 NNE 6 7 3 4 1025.5 - 0.0
20/07:30pm 11.9 10.7 10.4 90 0.8 NE 7 7 4 4 1025.3 - 0.0
20/07:15pm 12.0 10.8 10.3 89 0.9 NE 7 9 4 5 1025.3 - 0.0
20/07:00pm 12.3 11.2 10.5 89 0.9 ENE 7 9 4 5 1025.2 - 0.0
20/06:45pm 12.6 11.5 10.7 88 1.0 ENE 7 9 4 5 1025.2 - 0.0
20/06:30pm 12.9 11.8 10.8 87 1.1 ENE 7 9 4 5 1025.2 - 0.0
20/06:15pm 13.2 12.2 11.0 86 1.2 ENE 7 9 4 5 1025.1 - 0.0
20/06:00pm 13.3 12.3 11.1 86 1.2 ENE 7 9 4 5 1025.1 - 0.0
20/05:45pm 13.4 12.3 10.8 84 1.4 ENE 7 9 4 5 1025.1 - 0.0
20/05:30pm 13.8 12.8 11.0 83 1.5 ENE 7 9 4 5 1025.1 - 0.0
20/05:15pm 14.3 13.5 11.1 81 1.7 NE 6 7 3 4 1025.1 - 0.0
20/05:00pm 15.1 14.3 11.2 77 2.1 NE 6 7 3 4 1025.0 - 0.0
20/04:45pm 15.8 15.1 11.3 74 2.4 NE 6 7 3 4 1025.1 - 0.0
20/04:30pm 16.5 15.8 11.5 72 2.7 NE 6 7 3 4 1025.1 - 0.0
20/04:15pm 17.0 16.3 11.5 70 3.0 NE 6 9 3 5 1024.9 - 0.0
20/04:00pm 17.6 17.4 11.8 69 3.2 NNE 4 9 2 5 1024.9 - 0.0
20/03:45pm 17.8 17.5 11.6 67 3.4 - 4 7 2 4 1025.0 - 0.0
20/03:30pm 17.9 17.6 11.6 66 3.5 NE 4 7 2 4 1025.1 - 0.0
20/03:15pm 17.6 17.3 11.5 67 3.3 NE 4 7 2 4 1025.2 - 0.0
20/03:00pm 17.4 16.7 11.5 68 3.2 NE 6 11 3 6 1025.3 - 0.0
20/02:45pm 17.7 17.5 11.8 68 3.3 NE 4 7 2 4 1025.3 - 0.0
20/02:30pm 17.3 17.0 11.5 68 3.2 ESE 4 7 2 4 1025.3 - 0.0
20/02:15pm 17.4 16.8 11.6 69 3.2 E 6 11 3 6 1025.5 - 0.0
20/02:00pm 17.4 16.7 11.5 68 3.2 ESE 6 7 3 4 1025.6 - 0.0
20/01:45pm 17.5 17.2 11.4 67 3.3 ESE 4 7 2 4 1025.7 - 0.0
20/01:30pm 17.8 16.9 11.4 66 3.5 ESE 7 15 4 8 1025.7 - 0.0
20/01:15pm 17.9 17.3 11.6 66 3.5 SE 6 11 3 6 1025.9 - 0.0
20/01:00pm 17.7 16.9 11.6 67 3.4 SE 7 11 4 6 1026.2 - 0.0
20/12:45pm 17.6 16.3 11.4 67 3.4 SE 9 17 5 9 1026.5 - 0.0
20/12:30pm 18.0 16.8 11.5 66 3.6 SE 9 15 5 8 1026.8 - 0.0
20/12:15pm 18.0 16.9 11.8 67 3.4 SSE 9 19 5 10 1027.1 - 0.0
20/12:00pm 17.1 15.8 11.2 68 3.2 SE 9 17 5 9 1027.3 - 0.0
20/11:45am 17.5 16.3 11.5 68 3.3 SE 9 15 5 8 1027.6 - 0.0
20/11:30am 17.5 15.9 11.6 68 3.2 SE 11 17 6 9 1027.8 - 0.0
20/11:15am 17.2 16.7 11.9 71 2.9 SSE 6 11 3 6 1028.1 - 0.0
20/11:00am 16.7 15.5 11.5 71 2.8 S 9 15 5 8 1028.3 - 0.0
20/10:45am 16.9 15.6 11.4 70 3.0 SSE 9 15 5 8 1028.5 - 0.0
20/10:30am 17.1 16.0 12.0 72 2.8 S 9 13 5 7 1028.5 - 0.0
20/10:15am 16.5 15.0 11.8 74 2.6 SSE 11 15 6 8 1028.5 - 0.0
20/10:00am 16.4 14.5 11.8 74 2.5 SSE 13 19 7 10 1028.5 - 0.0
20/09:45am 16.2 13.9 11.9 75 2.4 S 15 22 8 12 1028.6 - 0.0
20/09:30am 15.8 13.6 12.1 78 2.0 S 15 26 8 14 1028.6 - 0.0
20/09:15am 15.0 13.0 11.6 80 1.8 S 13 20 7 11 1028.6 - 0.0
20/09:00am 14.8 12.8 11.4 80 1.8 SSE 13 20 7 11 1028.6 - 0.0
20/08:45am 14.7 13.0 11.3 80 1.8 SSE 11 19 6 10 1028.6 - 0.0
20/08:30am 14.8 12.9 11.7 82 1.7 S 13 20 7 11 1028.5 - 0.0
20/08:15am 13.9 11.8 11.3 84 1.4 S 13 19 7 10 1028.6 - 0.0
20/08:00am 13.6 11.5 11.0 84 1.4 S 13 20 7 11 1028.6 - 0.0
20/07:45am 13.4 10.8 10.8 84 1.4 S 15 20 8 11 1028.5 - 0.0
20/07:30am 13.5 11.0 10.9 84 1.4 S 15 20 8 11 1028.4 - 0.0
20/07:15am 13.4 11.2 10.8 84 1.4 S 13 17 7 9 1028.4 - 0.0
20/07:00am 13.5 11.0 10.9 84 1.4 S 15 20 8 11 1028.3 - 0.0
20/06:45am 13.5 10.6 10.9 84 1.4 S 17 20 9 11 1028.2 - 0.0
20/06:30am 13.4 10.5 10.9 85 1.3 S 17 24 9 13 1028.1 - 0.0
20/06:15am 13.0 10.0 10.8 86 1.2 SSE 17 24 9 13 1027.9 - 0.0
20/06:00am 12.6 9.9 10.3 86 1.2 S 15 20 8 11 1027.9 - 0.0
20/05:45am 12.8 10.5 10.5 86 1.2 S 13 17 7 9 1027.8 - 0.0
20/05:30am 12.8 10.1 10.5 86 1.2 S 15 20 8 11 1027.6 - 0.0
20/05:15am 12.9 10.3 10.6 86 1.2 S 15 22 8 12 1027.4 - 0.0
20/05:00am 12.9 10.3 10.6 86 1.2 S 15 24 8 13 1027.4 - 0.0
20/04:45am 13.3 11.6 11.1 86 1.2 S 11 19 6 10 1027.7 - 0.0
20/04:30am 13.3 11.6 11.3 88 1.1 S 11 17 6 9 1027.7 - 0.0
20/04:15am 13.2 10.8 11.5 89 0.9 S 15 20 8 11 1027.8 - 0.0
20/04:00am 13.0 11.0 11.4 90 0.9 S 13 19 7 10 1028.0 - 0.0
20/03:45am 12.9 10.8 11.3 90 0.9 S 13 19 7 10 1028.0 - 0.0
20/03:30am 12.9 11.2 11.3 90 0.9 S 11 17 6 9 1028.0 - 0.0
20/03:15am 13.1 11.4 11.3 89 1.0 S 11 15 6 8 1028.0 - 0.0
20/03:00am 13.2 11.1 11.2 88 1.1 S 13 19 7 10 1028.2 - 0.0
20/02:45am 13.6 10.4 11.3 86 1.2 S 19 28 10 15 1028.3 - 0.0
20/02:30am 13.8 10.6 11.4 85 1.3 SSE 19 26 10 14 1028.3 - 0.0
20/02:15am 13.8 11.0 11.4 85 1.3 SSE 17 24 9 13 1028.4 - 0.0
20/02:00am 13.5 11.1 11.3 86 1.2 S 15 24 8 13 1028.4 - 0.0
20/01:45am 13.6 11.2 11.4 86 1.2 S 15 20 8 11 1028.5 - 0.0
20/01:30am 13.5 10.4 11.5 88 1.1 SSE 19 24 10 13 1028.7 - 0.0
20/01:15am 13.0 10.5 11.1 88 1.0 S 15 20 8 11 1028.8 - 0.0
20/01:00am 13.0 10.8 10.9 87 1.1 S 13 17 7 9 1028.8 - 0.0
20/12:45am 13.4 11.3 11.0 85 1.3 S 13 17 7 9 1028.9 - 0.0
20/12:30am 14.1 12.9 11.7 85 1.3 S 9 15 5 8 1029.0 - 0.0
20/12:15am 14.1 12.5 11.6 85 1.3 SE 11 17 6 9 1029.1 - 0.0
20/12:00am 14.0 12.4 11.7 86 1.2 SE 11 17 6 9 1029.2 - 0.0
 
Date/Time
EST
Temp
°C
App
Temp
°C
Dew
Point
°C
Rel
Hum
%
Delta-T
°C
Wind Press
QNH
hPa
Press
MSL
hPa
Rain since
9am
mm
Dir  Spd
km/h
Gust
km/h
Spd
kts
Gust
kts
19/11:45pm 13.9 12.7 11.7 86 1.2 SSE 9 15 5 8 1029.2 - 0.0
19/11:30pm 13.8 12.2 11.6 86 1.2 SSE 11 17 6 9 1029.3 - 0.0
19/11:15pm 13.8 11.5 11.6 86 1.2 SSE 15 20 8 11 1029.3 - 0.0
19/11:00pm 13.7 10.6 11.7 88 1.1 SSE 19 24 10 13 1029.3 - 0.0
19/10:45pm 13.3 10.1 11.4 88 1.0 S 19 24 10 13 1029.2 - 0.0
19/10:30pm 13.2 10.4 11.2 88 1.1 S 17 20 9 11 1029.2 - 0.0
19/10:15pm 13.3 10.5 11.3 88 1.1 SSE 17 20 9 11 1029.3 - 0.0
19/10:00pm 13.5 10.7 11.4 87 1.1 SSE 17 24 9 13 1029.3 - 0.0
19/09:45pm 13.6 10.5 11.5 87 1.1 SSE 19 26 10 14 1029.3 - 0.0

Other Formats:

Comma delimited format used in spreadsheet applications
http://www.bom.gov.au/fwo/IDN60801/IDN60801.95757.axf

JavaScript Object Notation format (JSON) in row-major order
http://www.bom.gov.au/fwo/IDN60801/IDN60801.95757.json